sensor_id;sensor_type;location;lat;lon;timestamp;noise_LAeq;noise_LA_min;noise_LA_max;noise_LA01;noise_LA95
73638;Laerm;53743;51.100;5.874;2023-07-13T00:00:28;31.69;28.46;43.60;;
73638;Laerm;53743;51.100;5.874;2023-07-13T00:01:29;34.17;28.55;63.99;;
73638;Laerm;53743;51.100;5.874;2023-07-13T00:02:32;57.41;28.35;73.12;;
73638;Laerm;53743;51.100;5.874;2023-07-13T00:03:33;51.93;29.32;67.04;;
73638;Laerm;53743;51.100;5.874;2023-07-13T00:04:36;35.89;29.73;47.28;;
73638;Laerm;53743;51.100;5.874;2023-07-13T00:05:37;30.93;28.57;36.86;;
73638;Laerm;53743;51.100;5.874;2023-07-13T00:06:39;57.80;29.40;73.52;;
73638;Laerm;53743;51.100;5.874;2023-07-13T00:07:40;31.19;28.64;41.88;;
73638;Laerm;53743;51.100;5.874;2023-07-13T00:08:42;30.71;28.70;43.47;;
73638;Laerm;53743;51.100;5.874;2023-07-13T00:09:44;31.14;28.99;36.52;;
73638;Laerm;53743;51.100;5.874;2023-07-13T00:10:46;33.99;30.12;41.07;;
73638;Laerm;53743;51.100;5.874;2023-07-13T00:11:54;33.50;29.52;42.25;;
73638;Laerm;53743;51.100;5.874;2023-07-13T00:12:57;56.25;28.99;73.11;;
73638;Laerm;53743;51.100;5.874;2023-07-13T00:13:58;30.78;28.56;36.40;;
73638;Laerm;53743;51.100;5.874;2023-07-13T00:15:05;30.32;28.52;32.99;;
73638;Laerm;53743;51.100;5.874;2023-07-13T00:16:10;30.78;28.27;34.52;;
73638;Laerm;53743;51.100;5.874;2023-07-13T00:17:14;32.01;29.64;35.98;;
73638;Laerm;53743;51.100;5.874;2023-07-13T00:18:15;30.92;28.75;46.40;;
73638;Laerm;53743;51.100;5.874;2023-07-13T00:19:18;31.81;29.40;36.45;;
73638;Laerm;53743;51.100;5.874;2023-07-13T00:20:19;31.94;29.54;41.39;;
73638;Laerm;53743;51.100;5.874;2023-07-13T00:21:22;30.96;28.57;34.70;;
73638;Laerm;53743;51.100;5.874;2023-07-13T00:22:25;31.21;29.02;37.71;;
73638;Laerm;53743;51.100;5.874;2023-07-13T00:23:27;30.76;28.54;34.98;;
73638;Laerm;53743;51.100;5.874;2023-07-13T00:24:28;30.82;28.73;32.91;;
73638;Laerm;53743;51.100;5.874;2023-07-13T00:25:31;31.63;29.42;37.71;;
73638;Laerm;53743;51.100;5.874;2023-07-13T00:26:33;31.54;29.00;38.59;;
73638;Laerm;53743;51.100;5.874;2023-07-13T00:27:35;31.03;28.68;36.03;;
73638;Laerm;53743;51.100;5.874;2023-07-13T00:28:37;30.67;28.53;34.29;;
73638;Laerm;53743;51.100;5.874;2023-07-13T00:29:40;38.74;28.52;50.54;;
73638;Laerm;53743;51.100;5.874;2023-07-13T00:30:42;54.84;29.81;70.56;;
73638;Laerm;53743;51.100;5.874;2023-07-13T00:31:46;55.10;29.51;72.23;;
73638;Laerm;53743;51.100;5.874;2023-07-13T00:32:47;42.37;29.15;57.49;;
73638;Laerm;53743;51.100;5.874;2023-07-13T00:33:49;31.67;29.58;35.11;;
73638;Laerm;53743;51.100;5.874;2023-07-13T00:34:51;32.64;29.79;42.74;;
73638;Laerm;53743;51.100;5.874;2023-07-13T00:35:55;55.28;28.88;71.02;;
73638;Laerm;53743;51.100;5.874;2023-07-13T00:36:56;30.75;28.90;33.82;;
73638;Laerm;53743;51.100;5.874;2023-07-13T00:37:59;33.05;29.21;40.26;;
73638;Laerm;53743;51.100;5.874;2023-07-13T00:39:00;32.39;29.49;43.20;;
73638;Laerm;53743;51.100;5.874;2023-07-13T00:40:04;30.99;28.73;45.41;;
73638;Laerm;53743;51.100;5.874;2023-07-13T00:41:06;30.93;28.74;33.07;;
73638;Laerm;53743;51.100;5.874;2023-07-13T00:42:09;31.04;28.84;34.76;;
73638;Laerm;53743;51.100;5.874;2023-07-13T00:43:15;30.95;28.72;38.73;;
73638;Laerm;53743;51.100;5.874;2023-07-13T00:44:20;30.88;28.77;34.22;;
73638;Laerm;53743;51.100;5.874;2023-07-13T00:46:09;30.09;27.79;43.71;;
73638;Laerm;53743;51.100;5.874;2023-07-13T00:47:13;54.84;27.70;70.73;;
73638;Laerm;53743;51.100;5.874;2023-07-13T00:48:20;31.09;28.46;36.28;;
73638;Laerm;53743;51.100;5.874;2023-07-13T00:49:24;31.89;28.68;41.66;;
73638;Laerm;53743;51.100;5.874;2023-07-13T00:50:27;30.98;28.98;33.72;;
73638;Laerm;53743;51.100;5.874;2023-07-13T00:51:38;31.25;29.35;33.45;;
73638;Laerm;53743;51.100;5.874;2023-07-13T00:52:50;32.00;29.67;35.33;;
73638;Laerm;53743;51.100;5.874;2023-07-13T00:53:59;31.73;28.89;34.87;;
73638;Laerm;53743;51.100;5.874;2023-07-13T00:55:03;49.47;29.36;67.14;;
73638;Laerm;53743;51.100;5.874;2023-07-13T00:56:06;53.66;28.78;71.48;;
73638;Laerm;53743;51.100;5.874;2023-07-13T00:57:15;30.58;28.54;40.43;;
73638;Laerm;53743;51.100;5.874;2023-07-13T00:58:18;30.72;28.42;39.97;;
73638;Laerm;53743;51.100;5.874;2023-07-13T00:59:22;30.86;28.64;33.88;;
73638;Laerm;53743;51.100;5.874;2023-07-13T01:00:27;55.62;29.02;76.84;;
73638;Laerm;53743;51.100;5.874;2023-07-13T01:01:30;31.40;29.69;34.60;;
73638;Laerm;53743;51.100;5.874;2023-07-13T01:02:35;31.19;29.58;34.19;;
73638;Laerm;53743;51.100;5.874;2023-07-13T01:03:38;31.64;29.94;34.48;;
73638;Laerm;53743;51.100;5.874;2023-07-13T01:04:41;32.49;29.90;38.38;;
73638;Laerm;53743;51.100;5.874;2023-07-13T01:05:48;31.57;29.65;33.63;;
73638;Laerm;53743;51.100;5.874;2023-07-13T01:06:53;31.16;29.48;33.21;;
73638;Laerm;53743;51.100;5.874;2023-07-13T01:07:55;31.16;29.23;34.49;;
73638;Laerm;53743;51.100;5.874;2023-07-13T01:08:59;31.47;29.65;34.38;;
73638;Laerm;53743;51.100;5.874;2023-07-13T01:10:02;30.86;29.31;32.58;;
73638;Laerm;53743;51.100;5.874;2023-07-13T01:11:04;31.55;29.66;34.66;;
73638;Laerm;53743;51.100;5.874;2023-07-13T01:12:07;32.38;30.12;36.09;;
73638;Laerm;53743;51.100;5.874;2023-07-13T01:13:10;55.45;30.74;70.98;;
73638;Laerm;53743;51.100;5.874;2023-07-13T01:14:12;32.58;29.75;46.00;;
73638;Laerm;53743;51.100;5.874;2023-07-13T01:15:38;31.30;29.38;35.13;;
73638;Laerm;53743;51.100;5.874;2023-07-13T01:16:43;31.79;29.50;38.93;;
73638;Laerm;53743;51.100;5.874;2023-07-13T01:17:47;32.34;29.67;38.79;;
73638;Laerm;53743;51.100;5.874;2023-07-13T01:18:48;38.05;32.56;44.69;;
73638;Laerm;53743;51.100;5.874;2023-07-13T01:19:51;34.54;30.22;42.90;;
73638;Laerm;53743;51.100;5.874;2023-07-13T01:20:56;32.90;29.96;39.15;;
73638;Laerm;53743;51.100;5.874;2023-07-13T01:21:58;40.01;29.42;54.53;;
73638;Laerm;53743;51.100;5.874;2023-07-13T01:22:59;55.14;30.16;73.31;;
73638;Laerm;53743;51.100;5.874;2023-07-13T01:24:05;31.63;29.74;33.15;;
73638;Laerm;53743;51.100;5.874;2023-07-13T01:25:07;31.25;29.48;33.40;;
73638;Laerm;53743;51.100;5.874;2023-07-13T01:26:09;30.94;29.45;33.25;;
73638;Laerm;53743;51.100;5.874;2023-07-13T01:27:16;31.41;29.61;42.48;;
73638;Laerm;53743;51.100;5.874;2023-07-13T01:28:19;31.92;29.60;46.07;;
73638;Laerm;53743;51.100;5.874;2023-07-13T01:29:21;31.04;29.12;36.59;;
73638;Laerm;53743;51.100;5.874;2023-07-13T01:30:23;31.86;29.80;36.36;;
73638;Laerm;53743;51.100;5.874;2023-07-13T01:31:25;30.95;29.33;38.61;;
73638;Laerm;53743;51.100;5.874;2023-07-13T01:32:28;60.24;30.16;75.66;;
73638;Laerm;53743;51.100;5.874;2023-07-13T01:33:30;32.53;30.10;36.36;;
73638;Laerm;53743;51.100;5.874;2023-07-13T01:34:33;31.94;29.90;38.25;;
73638;Laerm;53743;51.100;5.874;2023-07-13T01:35:34;31.88;30.02;35.09;;
73638;Laerm;53743;51.100;5.874;2023-07-13T01:36:38;31.54;29.61;34.23;;
73638;Laerm;53743;51.100;5.874;2023-07-13T01:37:40;30.97;29.35;32.95;;
73638;Laerm;53743;51.100;5.874;2023-07-13T01:38:42;56.17;29.54;73.32;;
73638;Laerm;53743;51.100;5.874;2023-07-13T01:39:44;46.67;29.22;65.39;;
73638;Laerm;53743;51.100;5.874;2023-07-13T01:40:46;30.33;28.79;34.98;;
73638;Laerm;53743;51.100;5.874;2023-07-13T01:41:47;30.25;28.52;35.61;;
73638;Laerm;53743;51.100;5.874;2023-07-13T01:42:49;30.65;29.09;39.71;;
73638;Laerm;53743;51.100;5.874;2023-07-13T01:43:51;32.41;29.63;35.05;;
73638;Laerm;53743;51.100;5.874;2023-07-13T01:44:53;32.20;29.90;35.18;;
73638;Laerm;53743;51.100;5.874;2023-07-13T01:45:54;31.34;29.07;34.70;;
73638;Laerm;53743;51.100;5.874;2023-07-13T01:46:56;52.51;29.21;67.38;;
73638;Laerm;53743;51.100;5.874;2023-07-13T01:47:58;32.57;29.85;39.18;;
73638;Laerm;53743;51.100;5.874;2023-07-13T01:49:00;31.87;29.27;34.03;;
73638;Laerm;53743;51.100;5.874;2023-07-13T01:50:04;32.77;30.53;36.71;;
73638;Laerm;53743;51.100;5.874;2023-07-13T01:51:06;57.64;31.51;73.78;;
73638;Laerm;53743;51.100;5.874;2023-07-13T01:52:09;54.44;30.40;70.02;;
73638;Laerm;53743;51.100;5.874;2023-07-13T01:53:11;32.23;30.15;35.36;;
73638;Laerm;53743;51.100;5.874;2023-07-13T01:54:14;32.69;30.61;36.38;;
73638;Laerm;53743;51.100;5.874;2023-07-13T01:55:16;56.25;29.76;75.26;;
73638;Laerm;53743;51.100;5.874;2023-07-13T01:56:17;41.69;30.29;59.14;;
73638;Laerm;53743;51.100;5.874;2023-07-13T01:57:19;32.51;30.56;35.11;;
73638;Laerm;53743;51.100;5.874;2023-07-13T01:58:21;32.24;30.17;38.89;;
73638;Laerm;53743;51.100;5.874;2023-07-13T01:59:22;32.51;30.09;38.34;;
73638;Laerm;53743;51.100;5.874;2023-07-13T02:00:24;31.73;29.85;39.69;;
73638;Laerm;53743;51.100;5.874;2023-07-13T02:01:26;32.33;30.51;35.65;;
73638;Laerm;53743;51.100;5.874;2023-07-13T02:02:29;32.35;30.29;34.63;;
73638;Laerm;53743;51.100;5.874;2023-07-13T02:03:30;34.60;30.58;52.45;;
73638;Laerm;53743;51.100;5.874;2023-07-13T02:04:33;32.21;30.16;44.41;;
73638;Laerm;53743;51.100;5.874;2023-07-13T02:05:35;31.99;29.48;40.05;;
73638;Laerm;53743;51.100;5.874;2023-07-13T02:06:38;31.98;29.74;36.71;;
73638;Laerm;53743;51.100;5.874;2023-07-13T02:07:41;33.40;30.60;36.39;;
73638;Laerm;53743;51.100;5.874;2023-07-13T02:08:44;56.83;31.16;73.17;;
73638;Laerm;53743;51.100;5.874;2023-07-13T02:09:45;33.29;30.42;38.58;;
73638;Laerm;53743;51.100;5.874;2023-07-13T02:10:48;32.58;30.31;44.15;;
73638;Laerm;53743;51.100;5.874;2023-07-13T02:11:49;32.24;29.93;35.55;;
73638;Laerm;53743;51.100;5.874;2023-07-13T02:12:51;32.74;30.57;37.45;;
73638;Laerm;53743;51.100;5.874;2023-07-13T02:13:53;34.39;30.59;44.99;;
73638;Laerm;53743;51.100;5.874;2023-07-13T02:14:55;34.74;30.11;46.78;;
73638;Laerm;53743;51.100;5.874;2023-07-13T02:15:56;35.40;29.88;49.09;;
73638;Laerm;53743;51.100;5.874;2023-07-13T02:16:58;36.11;29.91;51.03;;
73638;Laerm;53743;51.100;5.874;2023-07-13T02:18:00;57.19;30.65;73.46;;
73638;Laerm;53743;51.100;5.874;2023-07-13T02:19:02;35.97;29.71;48.74;;
73638;Laerm;53743;51.100;5.874;2023-07-13T02:20:05;58.09;29.75;73.65;;
73638;Laerm;53743;51.100;5.874;2023-07-13T02:21:07;37.20;29.78;50.58;;
73638;Laerm;53743;51.100;5.874;2023-07-13T02:22:10;38.32;30.00;54.67;;
73638;Laerm;53743;51.100;5.874;2023-07-13T02:23:12;36.36;29.80;49.96;;
73638;Laerm;53743;51.100;5.874;2023-07-13T02:24:15;34.92;29.79;47.50;;
73638;Laerm;53743;51.100;5.874;2023-07-13T02:25:18;37.13;30.64;49.43;;
73638;Laerm;53743;51.100;5.874;2023-07-13T02:26:20;36.17;30.50;49.58;;
73638;Laerm;53743;51.100;5.874;2023-07-13T02:27:22;36.24;30.32;52.53;;
73638;Laerm;53743;51.100;5.874;2023-07-13T02:28:25;37.28;30.29;47.82;;
73638;Laerm;53743;51.100;5.874;2023-07-13T02:29:26;36.74;30.71;49.13;;
73638;Laerm;53743;51.100;5.874;2023-07-13T02:30:28;35.89;30.03;49.29;;
73638;Laerm;53743;51.100;5.874;2023-07-13T02:31:30;45.52;31.30;55.95;;
73638;Laerm;53743;51.100;5.874;2023-07-13T02:32:33;57.21;31.37;70.61;;
73638;Laerm;53743;51.100;5.874;2023-07-13T02:33:34;36.24;30.33;48.80;;
73638;Laerm;53743;51.100;5.874;2023-07-13T02:34:37;55.83;31.60;71.10;;
73638;Laerm;53743;51.100;5.874;2023-07-13T02:35:39;41.80;30.75;61.22;;
73638;Laerm;53743;51.100;5.874;2023-07-13T02:36:41;50.92;31.03;65.09;;
73638;Laerm;53743;51.100;5.874;2023-07-13T02:37:42;49.44;31.14;64.90;;
73638;Laerm;53743;51.100;5.874;2023-07-13T02:38:49;53.67;30.66;68.52;;
73638;Laerm;53743;51.100;5.874;2023-07-13T02:39:51;52.42;31.73;65.75;;
73638;Laerm;53743;51.100;5.874;2023-07-13T02:40:53;51.99;31.75;68.15;;
73638;Laerm;53743;51.100;5.874;2023-07-13T02:41:54;46.21;30.64;63.64;;
73638;Laerm;53743;51.100;5.874;2023-07-13T02:42:56;47.10;30.36;65.80;;
73638;Laerm;53743;51.100;5.874;2023-07-13T02:43:59;38.46;31.33;49.69;;
73638;Laerm;53743;51.100;5.874;2023-07-13T02:45:05;41.02;31.86;59.71;;
73638;Laerm;53743;51.100;5.874;2023-07-13T02:46:08;51.38;31.45;66.91;;
73638;Laerm;53743;51.100;5.874;2023-07-13T02:47:10;60.76;32.10;73.90;;
73638;Laerm;53743;51.100;5.874;2023-07-13T02:48:14;51.89;31.34;67.53;;
73638;Laerm;53743;51.100;5.874;2023-07-13T02:49:15;45.69;31.49;63.12;;
73638;Laerm;53743;51.100;5.874;2023-07-13T02:50:18;59.87;33.73;74.06;;
73638;Laerm;53743;51.100;5.874;2023-07-13T02:51:19;42.86;31.49;54.40;;
73638;Laerm;53743;51.100;5.874;2023-07-13T02:52:21;37.97;31.63;51.25;;
73638;Laerm;53743;51.100;5.874;2023-07-13T02:53:23;51.18;32.41;65.37;;
73638;Laerm;53743;51.100;5.874;2023-07-13T02:54:26;37.42;31.43;49.88;;
73638;Laerm;53743;51.100;5.874;2023-07-13T02:55:28;34.39;31.47;39.57;;
73638;Laerm;53743;51.100;5.874;2023-07-13T02:56:32;55.64;31.85;72.26;;
73638;Laerm;53743;51.100;5.874;2023-07-13T02:57:34;35.18;31.36;45.57;;
73638;Laerm;53743;51.100;5.874;2023-07-13T02:58:36;57.20;31.75;74.12;;
73638;Laerm;53743;51.100;5.874;2023-07-13T02:59:39;58.91;32.99;72.05;;
73638;Laerm;53743;51.100;5.874;2023-07-13T03:00:42;35.40;31.53;47.87;;
73638;Laerm;53743;51.100;5.874;2023-07-13T03:01:44;58.12;32.86;74.09;;
73638;Laerm;53743;51.100;5.874;2023-07-13T03:02:45;55.44;32.19;69.80;;
73638;Laerm;53743;51.100;5.874;2023-07-13T03:03:49;35.81;32.21;44.05;;
73638;Laerm;53743;51.100;5.874;2023-07-13T03:04:52;35.46;31.52;45.61;;
73638;Laerm;53743;51.100;5.874;2023-07-13T03:06:00;36.64;31.97;53.44;;
73638;Laerm;53743;51.100;5.874;2023-07-13T03:07:08;36.02;31.10;47.63;;
73638;Laerm;53743;51.100;5.874;2023-07-13T03:08:12;35.58;31.21;44.64;;
73638;Laerm;53743;51.100;5.874;2023-07-13T03:09:16;35.62;32.76;42.28;;
73638;Laerm;53743;51.100;5.874;2023-07-13T03:10:24;54.92;33.22;73.57;;
73638;Laerm;53743;51.100;5.874;2023-07-13T03:11:27;52.89;35.27;71.41;;
73638;Laerm;53743;51.100;5.874;2023-07-13T03:12:36;45.65;35.61;55.80;;
73638;Laerm;53743;51.100;5.874;2023-07-13T03:13:42;45.00;33.10;60.92;;
73638;Laerm;53743;51.100;5.874;2023-07-13T03:14:45;38.65;32.23;50.47;;
73638;Laerm;53743;51.100;5.874;2023-07-13T03:15:48;54.46;32.12;71.31;;
73638;Laerm;53743;51.100;5.874;2023-07-13T03:16:50;36.83;32.25;49.67;;
73638;Laerm;53743;51.100;5.874;2023-07-13T03:17:53;37.89;32.48;49.01;;
73638;Laerm;53743;51.100;5.874;2023-07-13T03:18:55;55.59;32.94;70.50;;
73638;Laerm;53743;51.100;5.874;2023-07-13T03:19:57;36.00;32.58;46.77;;
73638;Laerm;53743;51.100;5.874;2023-07-13T03:20:59;53.80;32.96;68.86;;
73638;Laerm;53743;51.100;5.874;2023-07-13T03:22:01;51.05;33.47;65.65;;
73638;Laerm;53743;51.100;5.874;2023-07-13T03:23:04;51.62;32.73;66.18;;
73638;Laerm;53743;51.100;5.874;2023-07-13T03:24:07;39.06;32.82;51.25;;
73638;Laerm;53743;51.100;5.874;2023-07-13T03:25:09;57.25;33.21;76.77;;
73638;Laerm;53743;51.100;5.874;2023-07-13T03:26:16;42.03;33.52;52.93;;
73638;Laerm;53743;51.100;5.874;2023-07-13T03:27:20;56.56;33.98;72.68;;
73638;Laerm;53743;51.100;5.874;2023-07-13T03:28:23;42.33;33.16;56.12;;
73638;Laerm;53743;51.100;5.874;2023-07-13T03:29:25;57.23;33.69;78.46;;
73638;Laerm;53743;51.100;5.874;2023-07-13T03:30:27;57.65;33.42;74.49;;
73638;Laerm;53743;51.100;5.874;2023-07-13T03:31:34;39.64;33.54;50.57;;
73638;Laerm;53743;51.100;5.874;2023-07-13T03:32:35;41.52;33.38;52.74;;
73638;Laerm;53743;51.100;5.874;2023-07-13T03:33:38;56.90;33.92;71.63;;
73638;Laerm;53743;51.100;5.874;2023-07-13T03:34:40;42.53;33.46;53.80;;
73638;Laerm;53743;51.100;5.874;2023-07-13T03:35:42;60.84;34.08;77.34;;
73638;Laerm;53743;51.100;5.874;2023-07-13T03:36:44;42.65;34.84;54.18;;
73638;Laerm;53743;51.100;5.874;2023-07-13T03:37:47;45.57;35.37;60.30;;
73638;Laerm;53743;51.100;5.874;2023-07-13T03:38:55;55.16;33.77;70.48;;
73638;Laerm;53743;51.100;5.874;2023-07-13T03:40:01;52.88;34.81;71.24;;
73638;Laerm;53743;51.100;5.874;2023-07-13T03:41:05;60.01;35.26;72.82;;
73638;Laerm;53743;51.100;5.874;2023-07-13T03:42:08;56.39;34.13;75.87;;
73638;Laerm;53743;51.100;5.874;2023-07-13T03:43:10;55.39;33.64;74.97;;
73638;Laerm;53743;51.100;5.874;2023-07-13T03:44:12;40.66;34.37;50.88;;
73638;Laerm;53743;51.100;5.874;2023-07-13T03:45:13;58.96;39.32;74.35;;
73638;Laerm;53743;51.100;5.874;2023-07-13T03:46:17;53.97;34.85;68.18;;
73638;Laerm;53743;51.100;5.874;2023-07-13T03:47:19;54.90;35.19;68.85;;
73638;Laerm;53743;51.100;5.874;2023-07-13T03:48:22;49.83;34.05;67.55;;
73638;Laerm;53743;51.100;5.874;2023-07-13T03:49:23;58.88;34.83;72.68;;
73638;Laerm;53743;51.100;5.874;2023-07-13T03:50:25;40.41;34.82;51.45;;
73638;Laerm;53743;51.100;5.874;2023-07-13T03:51:26;41.84;34.32;53.58;;
73638;Laerm;53743;51.100;5.874;2023-07-13T03:52:29;58.33;34.87;71.17;;
73638;Laerm;53743;51.100;5.874;2023-07-13T03:53:31;44.12;34.39;58.60;;
73638;Laerm;53743;51.100;5.874;2023-07-13T03:54:33;61.69;34.25;78.04;;
73638;Laerm;53743;51.100;5.874;2023-07-13T03:55:36;59.31;33.53;77.69;;
73638;Laerm;53743;51.100;5.874;2023-07-13T03:56:38;56.73;33.76;72.71;;
73638;Laerm;53743;51.100;5.874;2023-07-13T03:57:43;38.18;33.77;49.12;;
73638;Laerm;53743;51.100;5.874;2023-07-13T03:58:48;59.37;34.15;73.85;;
73638;Laerm;53743;51.100;5.874;2023-07-13T03:59:53;57.77;35.65;73.36;;
73638;Laerm;53743;51.100;5.874;2023-07-13T04:00:56;61.86;33.23;78.74;;
73638;Laerm;53743;51.100;5.874;2023-07-13T04:01:58;40.93;33.09;53.57;;
73638;Laerm;53743;51.100;5.874;2023-07-13T04:03:00;57.20;34.02;71.98;;
73638;Laerm;53743;51.100;5.874;2023-07-13T04:04:01;56.31;34.60;77.21;;
73638;Laerm;53743;51.100;5.874;2023-07-13T04:05:06;63.31;37.99;80.37;;
73638;Laerm;53743;51.100;5.874;2023-07-13T04:06:15;54.22;33.34;70.93;;
73638;Laerm;53743;51.100;5.874;2023-07-13T04:07:22;52.78;34.09;70.55;;
73638;Laerm;53743;51.100;5.874;2023-07-13T04:08:23;56.29;34.47;71.73;;
73638;Laerm;53743;51.100;5.874;2023-07-13T04:09:25;58.27;34.37;74.96;;
73638;Laerm;53743;51.100;5.874;2023-07-13T04:10:27;40.90;35.30;54.48;;
73638;Laerm;53743;51.100;5.874;2023-07-13T04:11:31;61.70;36.16;76.14;;
73638;Laerm;53743;51.100;5.874;2023-07-13T04:12:34;61.47;33.85;79.87;;
73638;Laerm;53743;51.100;5.874;2023-07-13T04:13:38;56.75;35.77;74.69;;
73638;Laerm;53743;51.100;5.874;2023-07-13T04:14:39;58.82;38.35;73.21;;
73638;Laerm;53743;51.100;5.874;2023-07-13T04:15:41;56.20;34.92;70.82;;
73638;Laerm;53743;51.100;5.874;2023-07-13T04:16:42;56.10;35.77;69.60;;
73638;Laerm;53743;51.100;5.874;2023-07-13T04:17:46;61.12;37.82;79.57;;
73638;Laerm;53743;51.100;5.874;2023-07-13T04:18:48;64.31;46.19;77.62;;
73638;Laerm;53743;51.100;5.874;2023-07-13T04:19:51;59.03;38.15;78.10;;
73638;Laerm;53743;51.100;5.874;2023-07-13T04:20:52;61.09;38.83;75.40;;
73638;Laerm;53743;51.100;5.874;2023-07-13T04:21:54;56.45;36.56;72.31;;
73638;Laerm;53743;51.100;5.874;2023-07-13T04:22:55;56.27;35.24;76.69;;
73638;Laerm;53743;51.100;5.874;2023-07-13T04:23:58;54.00;34.74;68.87;;
73638;Laerm;53743;51.100;5.874;2023-07-13T04:25:00;65.36;38.08;77.68;;
73638;Laerm;53743;51.100;5.874;2023-07-13T04:26:02;58.40;35.79;71.38;;
73638;Laerm;53743;51.100;5.874;2023-07-13T04:27:04;56.11;34.94;69.44;;
73638;Laerm;53743;51.100;5.874;2023-07-13T04:28:06;59.50;36.02;74.48;;
73638;Laerm;53743;51.100;5.874;2023-07-13T04:29:10;38.88;34.43;53.02;;
73638;Laerm;53743;51.100;5.874;2023-07-13T04:30:12;62.72;36.70;79.98;;
73638;Laerm;53743;51.100;5.874;2023-07-13T04:31:14;56.09;35.80;72.00;;
73638;Laerm;53743;51.100;5.874;2023-07-13T04:32:16;58.11;35.33;71.49;;
73638;Laerm;53743;51.100;5.874;2023-07-13T04:33:18;54.24;35.61;70.86;;
73638;Laerm;53743;51.100;5.874;2023-07-13T04:34:23;60.11;36.20;75.01;;
73638;Laerm;53743;51.100;5.874;2023-07-13T04:35:25;57.70;35.76;71.57;;
73638;Laerm;53743;51.100;5.874;2023-07-13T04:36:28;60.11;34.62;79.97;;
73638;Laerm;53743;51.100;5.874;2023-07-13T04:37:29;61.27;44.64;76.67;;
73638;Laerm;53743;51.100;5.874;2023-07-13T04:38:32;66.35;41.63;80.01;;
73638;Laerm;53743;51.100;5.874;2023-07-13T04:39:34;51.50;34.58;67.02;;
73638;Laerm;53743;51.100;5.874;2023-07-13T04:40:37;46.51;35.03;59.83;;
73638;Laerm;53743;51.100;5.874;2023-07-13T04:41:38;53.97;36.67;68.08;;
73638;Laerm;53743;51.100;5.874;2023-07-13T04:42:40;61.73;36.06;74.91;;
73638;Laerm;53743;51.100;5.874;2023-07-13T04:43:42;64.32;36.64;79.21;;
73638;Laerm;53743;51.100;5.874;2023-07-13T04:44:49;64.14;34.31;75.97;;
73638;Laerm;53743;51.100;5.874;2023-07-13T04:45:52;60.61;34.33;73.85;;
73638;Laerm;53743;51.100;5.874;2023-07-13T04:46:54;42.16;34.39;55.46;;
73638;Laerm;53743;51.100;5.874;2023-07-13T04:47:56;62.76;40.05;74.27;;
73638;Laerm;53743;51.100;5.874;2023-07-13T04:48:57;53.32;36.25;68.72;;
73638;Laerm;53743;51.100;5.874;2023-07-13T04:49:59;59.92;36.99;75.88;;
73638;Laerm;53743;51.100;5.874;2023-07-13T04:51:01;54.55;34.96;70.03;;
73638;Laerm;53743;51.100;5.874;2023-07-13T04:52:05;63.68;42.29;75.86;;
73638;Laerm;53743;51.100;5.874;2023-07-13T04:53:08;64.06;37.07;78.20;;
73638;Laerm;53743;51.100;5.874;2023-07-13T04:54:11;62.20;35.80;76.30;;
73638;Laerm;53743;51.100;5.874;2023-07-13T04:55:12;58.71;39.17;76.94;;
73638;Laerm;53743;51.100;5.874;2023-07-13T04:56:14;61.78;45.79;73.63;;
73638;Laerm;53743;51.100;5.874;2023-07-13T04:57:16;63.89;37.93;77.85;;
73638;Laerm;53743;51.100;5.874;2023-07-13T04:58:18;61.77;37.67;73.43;;
73638;Laerm;53743;51.100;5.874;2023-07-13T04:59:20;64.19;41.40;78.03;;
73638;Laerm;53743;51.100;5.874;2023-07-13T05:00:23;61.46;40.01;77.50;;
73638;Laerm;53743;51.100;5.874;2023-07-13T05:01:25;61.37;40.65;72.55;;
73638;Laerm;53743;51.100;5.874;2023-07-13T05:02:27;58.04;39.06;71.89;;
73638;Laerm;53743;51.100;5.874;2023-07-13T05:03:30;62.89;42.48;74.52;;
73638;Laerm;53743;51.100;5.874;2023-07-13T05:04:32;57.93;38.15;74.28;;
73638;Laerm;53743;51.100;5.874;2023-07-13T05:05:33;60.32;39.85;73.62;;
73638;Laerm;53743;51.100;5.874;2023-07-13T05:06:36;61.48;38.33;76.74;;
73638;Laerm;53743;51.100;5.874;2023-07-13T05:07:37;66.88;46.18;80.12;;
73638;Laerm;53743;51.100;5.874;2023-07-13T05:08:39;66.07;48.39;80.20;;
73638;Laerm;53743;51.100;5.874;2023-07-13T05:09:41;62.72;40.97;73.20;;
73638;Laerm;53743;51.100;5.874;2023-07-13T05:10:43;61.94;41.87;75.11;;
73638;Laerm;53743;51.100;5.874;2023-07-13T05:11:44;60.16;40.67;74.15;;
73638;Laerm;53743;51.100;5.874;2023-07-13T05:12:47;64.55;48.34;75.21;;
73638;Laerm;53743;51.100;5.874;2023-07-13T05:13:48;61.90;41.10;74.87;;
73638;Laerm;53743;51.100;5.874;2023-07-13T05:14:50;65.04;41.68;76.99;;
73638;Laerm;53743;51.100;5.874;2023-07-13T05:16:03;60.53;39.13;75.85;;
73638;Laerm;53743;51.100;5.874;2023-07-13T05:17:06;41.51;36.41;58.44;;
73638;Laerm;53743;51.100;5.874;2023-07-13T05:18:08;63.12;45.41;77.07;;
73638;Laerm;53743;51.100;5.874;2023-07-13T05:19:12;62.92;42.73;73.08;;
73638;Laerm;53743;51.100;5.874;2023-07-13T05:20:14;60.92;39.60;74.98;;
73638;Laerm;53743;51.100;5.874;2023-07-13T05:21:16;61.33;40.22;80.24;;
73638;Laerm;53743;51.100;5.874;2023-07-13T05:22:17;63.51;43.51;72.23;;
73638;Laerm;53743;51.100;5.874;2023-07-13T05:23:19;58.88;40.04;73.92;;
73638;Laerm;53743;51.100;5.874;2023-07-13T05:24:21;64.46;38.67;73.99;;
73638;Laerm;53743;51.100;5.874;2023-07-13T05:25:23;61.55;40.69;76.56;;
73638;Laerm;53743;51.100;5.874;2023-07-13T05:26:25;65.80;48.47;77.87;;
73638;Laerm;53743;51.100;5.874;2023-07-13T05:27:27;64.44;48.46;74.55;;
73638;Laerm;53743;51.100;5.874;2023-07-13T05:28:31;63.48;43.69;74.56;;
73638;Laerm;53743;51.100;5.874;2023-07-13T05:29:33;63.63;42.14;77.94;;
73638;Laerm;53743;51.100;5.874;2023-07-13T05:30:34;62.06;41.53;73.66;;
73638;Laerm;53743;51.100;5.874;2023-07-13T05:31:38;62.79;41.15;72.74;;
73638;Laerm;53743;51.100;5.874;2023-07-13T05:32:40;58.47;39.87;70.18;;
73638;Laerm;53743;51.100;5.874;2023-07-13T05:33:42;63.32;40.07;75.30;;
73638;Laerm;53743;51.100;5.874;2023-07-13T05:34:44;62.27;39.44;74.59;;
73638;Laerm;53743;51.100;5.874;2023-07-13T05:35:46;63.92;44.75;77.35;;
73638;Laerm;53743;51.100;5.874;2023-07-13T05:36:48;62.98;39.80;73.54;;
73638;Laerm;53743;51.100;5.874;2023-07-13T05:37:50;65.56;44.78;78.35;;
73638;Laerm;53743;51.100;5.874;2023-07-13T05:38:52;59.99;38.53;72.40;;
73638;Laerm;53743;51.100;5.874;2023-07-13T05:39:54;62.52;41.64;76.17;;
73638;Laerm;53743;51.100;5.874;2023-07-13T05:40:57;65.14;41.43;75.20;;
73638;Laerm;53743;51.100;5.874;2023-07-13T05:41:59;63.11;40.94;73.23;;
73638;Laerm;53743;51.100;5.874;2023-07-13T05:43:00;65.14;42.90;75.93;;
73638;Laerm;53743;51.100;5.874;2023-07-13T05:44:03;65.01;41.13;78.04;;
73638;Laerm;53743;51.100;5.874;2023-07-13T05:45:05;65.00;48.64;73.71;;
73638;Laerm;53743;51.100;5.874;2023-07-13T05:46:10;63.07;46.21;74.55;;
73638;Laerm;53743;51.100;5.874;2023-07-13T05:47:13;61.15;40.92;75.25;;
73638;Laerm;53743;51.100;5.874;2023-07-13T05:48:16;61.78;43.90;76.30;;
73638;Laerm;53743;51.100;5.874;2023-07-13T05:49:17;67.67;50.93;81.54;;
73638;Laerm;53743;51.100;5.874;2023-07-13T05:50:18;65.10;51.02;74.05;;
73638;Laerm;53743;51.100;5.874;2023-07-13T05:51:20;62.76;41.94;76.15;;
73638;Laerm;53743;51.100;5.874;2023-07-13T05:52:22;58.14;41.76;71.25;;